sensor_id;sensor_type;location;lat;lon;timestamp;temperature;humidity
19252;DHT22;9760;50.944;5.304;2024-01-25T00:01:11;9.10;99.90
19252;DHT22;9760;50.944;5.304;2024-01-25T00:03:37;9.10;99.90
19252;DHT22;9760;50.944;5.304;2024-01-25T00:06:06;9.10;99.90
19252;DHT22;9760;50.944;5.304;2024-01-25T00:08:33;9.10;99.90
19252;DHT22;9760;50.944;5.304;2024-01-25T00:11:01;9.10;99.90
19252;DHT22;9760;50.944;5.304;2024-01-25T00:13:26;9.10;99.90
19252;DHT22;9760;50.944;5.304;2024-01-25T00:15:52;9.20;99.90
19252;DHT22;9760;50.944;5.304;2024-01-25T00:18:18;9.10;99.90
19252;DHT22;9760;50.944;5.304;2024-01-25T00:20:43;9.10;99.90
19252;DHT22;9760;50.944;5.304;2024-01-25T00:23:09;9.00;99.90
19252;DHT22;9760;50.944;5.304;2024-01-25T00:25:35;9.00;99.90
19252;DHT22;9760;50.944;5.304;2024-01-25T00:28:00;9.00;99.90
19252;DHT22;9760;50.944;5.304;2024-01-25T00:30:26;9.00;99.90
19252;DHT22;9760;50.944;5.304;2024-01-25T00:32:52;8.90;99.90
19252;DHT22;9760;50.944;5.304;2024-01-25T00:35:17;8.90;99.90
19252;DHT22;9760;50.944;5.304;2024-01-25T00:37:43;8.80;99.90
19252;DHT22;9760;50.944;5.304;2024-01-25T00:40:09;8.80;99.90
19252;DHT22;9760;50.944;5.304;2024-01-25T00:42:44;8.80;99.90
19252;DHT22;9760;50.944;5.304;2024-01-25T00:45:11;8.80;99.90
19252;DHT22;9760;50.944;5.304;2024-01-25T00:47:37;8.70;99.90
19252;DHT22;9760;50.944;5.304;2024-01-25T00:50:04;8.70;99.90
19252;DHT22;9760;50.944;5.304;2024-01-25T00:52:30;8.80;99.90
19252;DHT22;9760;50.944;5.304;2024-01-25T00:54:56;8.80;99.90
19252;DHT22;9760;50.944;5.304;2024-01-25T00:57:22;8.80;99.90
19252;DHT22;9760;50.944;5.304;2024-01-25T00:59:48;8.80;99.90
19252;DHT22;9760;50.944;5.304;2024-01-25T01:02:14;8.80;99.90
19252;DHT22;9760;50.944;5.304;2024-01-25T01:04:40;8.80;99.90
19252;DHT22;9760;50.944;5.304;2024-01-25T01:07:06;8.80;99.90
19252;DHT22;9760;50.944;5.304;2024-01-25T01:09:32;8.80;99.90
19252;DHT22;9760;50.944;5.304;2024-01-25T01:11:59;8.80;99.90
19252;DHT22;9760;50.944;5.304;2024-01-25T01:14:24;8.70;99.90
19252;DHT22;9760;50.944;5.304;2024-01-25T01:16:50;8.70;99.90
19252;DHT22;9760;50.944;5.304;2024-01-25T01:19:16;8.60;99.90
19252;DHT22;9760;50.944;5.304;2024-01-25T01:21:42;8.60;99.90
19252;DHT22;9760;50.944;5.304;2024-01-25T01:24:12;8.60;99.90
19252;DHT22;9760;50.944;5.304;2024-01-25T01:26:38;8.50;99.90
19252;DHT22;9760;50.944;5.304;2024-01-25T01:29:03;8.50;99.90
19252;DHT22;9760;50.944;5.304;2024-01-25T01:31:29;8.40;99.90
19252;DHT22;9760;50.944;5.304;2024-01-25T01:33:55;8.40;99.90
19252;DHT22;9760;50.944;5.304;2024-01-25T01:36:21;8.40;99.90
19252;DHT22;9760;50.944;5.304;2024-01-25T01:38:47;8.30;99.90
19252;DHT22;9760;50.944;5.304;2024-01-25T01:41:13;8.30;99.90
19252;DHT22;9760;50.944;5.304;2024-01-25T01:43:39;8.30;99.90
19252;DHT22;9760;50.944;5.304;2024-01-25T01:46:10;8.20;99.90
19252;DHT22;9760;50.944;5.304;2024-01-25T01:48:39;8.20;99.90
19252;DHT22;9760;50.944;5.304;2024-01-25T01:51:05;8.20;99.90
19252;DHT22;9760;50.944;5.304;2024-01-25T01:53:32;8.10;99.90
19252;DHT22;9760;50.944;5.304;2024-01-25T01:55:58;8.10;99.90
19252;DHT22;9760;50.944;5.304;2024-01-25T01:58:25;8.10;99.90
19252;DHT22;9760;50.944;5.304;2024-01-25T02:00:53;8.10;99.90
19252;DHT22;9760;50.944;5.304;2024-01-25T02:03:19;8.10;99.90
19252;DHT22;9760;50.944;5.304;2024-01-25T02:05:45;8.00;99.90
19252;DHT22;9760;50.944;5.304;2024-01-25T02:08:10;8.00;99.90
19252;DHT22;9760;50.944;5.304;2024-01-25T02:10:36;8.00;99.90
19252;DHT22;9760;50.944;5.304;2024-01-25T02:13:02;7.90;99.90
19252;DHT22;9760;50.944;5.304;2024-01-25T02:15:27;7.90;99.90
19252;DHT22;9760;50.944;5.304;2024-01-25T02:17:54;7.90;99.90
19252;DHT22;9760;50.944;5.304;2024-01-25T02:20:20;7.90;99.90
19252;DHT22;9760;50.944;5.304;2024-01-25T02:22:46;7.80;99.90
19252;DHT22;9760;50.944;5.304;2024-01-25T02:25:12;7.80;99.90
19252;DHT22;9760;50.944;5.304;2024-01-25T02:27:37;7.80;99.90
19252;DHT22;9760;50.944;5.304;2024-01-25T02:30:07;7.80;99.90
19252;DHT22;9760;50.944;5.304;2024-01-25T02:32:33;7.70;99.90
19252;DHT22;9760;50.944;5.304;2024-01-25T02:34:59;7.70;99.90
19252;DHT22;9760;50.944;5.304;2024-01-25T02:37:25;7.70;99.90
19252;DHT22;9760;50.944;5.304;2024-01-25T02:39:51;7.70;99.90
19252;DHT22;9760;50.944;5.304;2024-01-25T02:42:17;7.60;99.90
19252;DHT22;9760;50.944;5.304;2024-01-25T02:44:43;7.60;99.90
19252;DHT22;9760;50.944;5.304;2024-01-25T02:47:09;7.60;99.90
19252;DHT22;9760;50.944;5.304;2024-01-25T02:49:35;7.60;99.90
19252;DHT22;9760;50.944;5.304;2024-01-25T02:52:00;7.60;99.90
19252;DHT22;9760;50.944;5.304;2024-01-25T02:54:26;7.50;99.90
19252;DHT22;9760;50.944;5.304;2024-01-25T02:56:52;7.50;99.90
19252;DHT22;9760;50.944;5.304;2024-01-25T02:59:18;7.50;99.90
19252;DHT22;9760;50.944;5.304;2024-01-25T03:01:43;7.40;99.90
19252;DHT22;9760;50.944;5.304;2024-01-25T03:04:10;7.40;99.90
19252;DHT22;9760;50.944;5.304;2024-01-25T03:06:36;7.30;99.90
19252;DHT22;9760;50.944;5.304;2024-01-25T03:09:02;7.30;99.90
19252;DHT22;9760;50.944;5.304;2024-01-25T03:11:30;7.20;99.90
19252;DHT22;9760;50.944;5.304;2024-01-25T03:13:56;7.20;99.90
19252;DHT22;9760;50.944;5.304;2024-01-25T03:16:22;7.20;99.90
19252;DHT22;9760;50.944;5.304;2024-01-25T03:18:48;7.20;99.90
19252;DHT22;9760;50.944;5.304;2024-01-25T03:21:13;7.10;99.90
19252;DHT22;9760;50.944;5.304;2024-01-25T03:23:39;7.10;99.90
19252;DHT22;9760;50.944;5.304;2024-01-25T03:26:05;7.00;99.90
19252;DHT22;9760;50.944;5.304;2024-01-25T03:28:31;7.00;99.90
19252;DHT22;9760;50.944;5.304;2024-01-25T03:30:57;6.90;99.90
19252;DHT22;9760;50.944;5.304;2024-01-25T03:33:22;6.80;99.90
19252;DHT22;9760;50.944;5.304;2024-01-25T03:35:48;6.80;99.90
19252;DHT22;9760;50.944;5.304;2024-01-25T03:38:14;6.80;99.90
19252;DHT22;9760;50.944;5.304;2024-01-25T03:40:40;6.80;99.90
19252;DHT22;9760;50.944;5.304;2024-01-25T03:43:05;6.80;99.90
19252;DHT22;9760;50.944;5.304;2024-01-25T03:45:31;6.70;99.90
19252;DHT22;9760;50.944;5.304;2024-01-25T03:47:58;6.70;99.90
19252;DHT22;9760;50.944;5.304;2024-01-25T03:50:24;6.70;99.90
19252;DHT22;9760;50.944;5.304;2024-01-25T03:52:49;6.70;99.90
19252;DHT22;9760;50.944;5.304;2024-01-25T03:55:15;6.70;99.90
19252;DHT22;9760;50.944;5.304;2024-01-25T03:57:40;6.40;99.90
19252;DHT22;9760;50.944;5.304;2024-01-25T04:00:07;6.40;99.90
19252;DHT22;9760;50.944;5.304;2024-01-25T04:02:34;6.40;99.90
19252;DHT22;9760;50.944;5.304;2024-01-25T04:04:59;6.30;99.90
19252;DHT22;9760;50.944;5.304;2024-01-25T04:07:25;6.20;99.90
19252;DHT22;9760;50.944;5.304;2024-01-25T04:09:51;6.20;99.90
19252;DHT22;9760;50.944;5.304;2024-01-25T04:12:16;6.10;99.90
19252;DHT22;9760;50.944;5.304;2024-01-25T04:14:42;6.00;99.90
19252;DHT22;9760;50.944;5.304;2024-01-25T04:17:08;5.90;99.90
19252;DHT22;9760;50.944;5.304;2024-01-25T04:19:35;5.90;99.90
19252;DHT22;9760;50.944;5.304;2024-01-25T04:22:01;5.90;99.90
19252;DHT22;9760;50.944;5.304;2024-01-25T04:24:27;5.90;99.90
19252;DHT22;9760;50.944;5.304;2024-01-25T04:26:52;6.00;99.90
19252;DHT22;9760;50.944;5.304;2024-01-25T04:29:18;6.00;99.90
19252;DHT22;9760;50.944;5.304;2024-01-25T04:31:44;5.90;99.90
19252;DHT22;9760;50.944;5.304;2024-01-25T04:34:12;5.90;99.90
19252;DHT22;9760;50.944;5.304;2024-01-25T04:36:38;5.90;99.90
19252;DHT22;9760;50.944;5.304;2024-01-25T04:39:04;5.90;99.90
19252;DHT22;9760;50.944;5.304;2024-01-25T04:41:29;5.90;99.90
19252;DHT22;9760;50.944;5.304;2024-01-25T04:43:55;5.90;99.90
19252;DHT22;9760;50.944;5.304;2024-01-25T04:46:21;5.90;99.90
19252;DHT22;9760;50.944;5.304;2024-01-25T04:48:46;5.90;99.90
19252;DHT22;9760;50.944;5.304;2024-01-25T04:51:19;5.80;99.90
19252;DHT22;9760;50.944;5.304;2024-01-25T04:53:47;5.80;99.90
19252;DHT22;9760;50.944;5.304;2024-01-25T04:56:13;5.80;99.90
19252;DHT22;9760;50.944;5.304;2024-01-25T04:58:39;5.70;99.90
19252;DHT22;9760;50.944;5.304;2024-01-25T05:01:04;5.70;99.90
19252;DHT22;9760;50.944;5.304;2024-01-25T05:03:32;5.70;99.90
19252;DHT22;9760;50.944;5.304;2024-01-25T05:05:58;5.60;99.90
19252;DHT22;9760;50.944;5.304;2024-01-25T05:08:23;5.70;99.90
19252;DHT22;9760;50.944;5.304;2024-01-25T05:10:49;5.70;99.90
19252;DHT22;9760;50.944;5.304;2024-01-25T05:13:15;5.70;99.90
19252;DHT22;9760;50.944;5.304;2024-01-25T05:15:41;5.70;99.90
19252;DHT22;9760;50.944;5.304;2024-01-25T05:18:07;5.70;99.90
19252;DHT22;9760;50.944;5.304;2024-01-25T05:20:33;5.70;99.90
19252;DHT22;9760;50.944;5.304;2024-01-25T05:23:01;5.60;99.90
19252;DHT22;9760;50.944;5.304;2024-01-25T05:25:26;5.60;99.90
19252;DHT22;9760;50.944;5.304;2024-01-25T05:27:53;5.60;99.90
19252;DHT22;9760;50.944;5.304;2024-01-25T05:30:19;5.60;99.90
19252;DHT22;9760;50.944;5.304;2024-01-25T05:32:45;5.60;99.90
19252;DHT22;9760;50.944;5.304;2024-01-25T05:35:11;5.60;99.90
19252;DHT22;9760;50.944;5.304;2024-01-25T05:37:37;5.60;99.90
19252;DHT22;9760;50.944;5.304;2024-01-25T05:40:03;5.60;99.90
19252;DHT22;9760;50.944;5.304;2024-01-25T05:42:28;5.60;99.90
19252;DHT22;9760;50.944;5.304;2024-01-25T05:44:54;5.50;99.90
19252;DHT22;9760;50.944;5.304;2024-01-25T05:47:20;5.60;99.90
19252;DHT22;9760;50.944;5.304;2024-01-25T05:49:46;5.60;99.90
19252;DHT22;9760;50.944;5.304;2024-01-25T05:52:12;5.60;99.90
19252;DHT22;9760;50.944;5.304;2024-01-25T05:54:38;5.50;99.90
19252;DHT22;9760;50.944;5.304;2024-01-25T05:57:04;5.50;99.90
19252;DHT22;9760;50.944;5.304;2024-01-25T05:59:30;5.50;99.90
19252;DHT22;9760;50.944;5.304;2024-01-25T06:01:55;5.50;99.90
19252;DHT22;9760;50.944;5.304;2024-01-25T06:04:27;5.50;99.90
19252;DHT22;9760;50.944;5.304;2024-01-25T06:06:53;5.70;99.90
19252;DHT22;9760;50.944;5.304;2024-01-25T06:09:19;5.60;99.90
19252;DHT22;9760;50.944;5.304;2024-01-25T06:11:44;5.60;99.90
19252;DHT22;9760;50.944;5.304;2024-01-25T06:14:11;5.50;99.90
19252;DHT22;9760;50.944;5.304;2024-01-25T06:16:36;5.50;99.90
19252;DHT22;9760;50.944;5.304;2024-01-25T06:19:03;5.50;99.90
19252;DHT22;9760;50.944;5.304;2024-01-25T06:21:29;5.50;99.90
19252;DHT22;9760;50.944;5.304;2024-01-25T06:23:55;5.50;99.90
19252;DHT22;9760;50.944;5.304;2024-01-25T06:26:20;5.50;99.90
19252;DHT22;9760;50.944;5.304;2024-01-25T06:28:46;5.30;99.90
19252;DHT22;9760;50.944;5.304;2024-01-25T06:31:12;5.40;99.90
19252;DHT22;9760;50.944;5.304;2024-01-25T06:33:37;5.30;99.90
19252;DHT22;9760;50.944;5.304;2024-01-25T06:36:03;5.30;99.90
19252;DHT22;9760;50.944;5.304;2024-01-25T06:38:29;5.30;99.90
19252;DHT22;9760;50.944;5.304;2024-01-25T06:40:54;5.40;99.90
19252;DHT22;9760;50.944;5.304;2024-01-25T06:43:20;5.50;99.90
19252;DHT22;9760;50.944;5.304;2024-01-25T06:45:45;5.40;99.90
19252;DHT22;9760;50.944;5.304;2024-01-25T06:48:11;5.40;99.90
19252;DHT22;9760;50.944;5.304;2024-01-25T06:50:37;5.40;99.90
19252;DHT22;9760;50.944;5.304;2024-01-25T06:53:04;5.40;99.90
19252;DHT22;9760;50.944;5.304;2024-01-25T06:55:29;5.30;99.90
19252;DHT22;9760;50.944;5.304;2024-01-25T06:57:55;5.40;99.90
19252;DHT22;9760;50.944;5.304;2024-01-25T07:00:20;5.30;99.90
19252;DHT22;9760;50.944;5.304;2024-01-25T07:02:47;5.30;99.90
19252;DHT22;9760;50.944;5.304;2024-01-25T07:05:13;5.30;99.90
19252;DHT22;9760;50.944;5.304;2024-01-25T07:07:39;5.30;99.90
19252;DHT22;9760;50.944;5.304;2024-01-25T07:10:06;5.30;99.90
19252;DHT22;9760;50.944;5.304;2024-01-25T07:12:32;5.40;99.90
19252;DHT22;9760;50.944;5.304;2024-01-25T07:14:58;5.40;99.90
19252;DHT22;9760;50.944;5.304;2024-01-25T07:17:24;5.30;99.90
19252;DHT22;9760;50.944;5.304;2024-01-25T07:19:49;5.30;99.90
19252;DHT22;9760;50.944;5.304;2024-01-25T07:22:15;5.30;99.90
19252;DHT22;9760;50.944;5.304;2024-01-25T07:24:42;5.40;99.90
19252;DHT22;9760;50.944;5.304;2024-01-25T07:27:08;5.40;99.90
19252;DHT22;9760;50.944;5.304;2024-01-25T07:29:36;5.40;99.90
19252;DHT22;9760;50.944;5.304;2024-01-25T07:32:02;5.40;99.90
19252;DHT22;9760;50.944;5.304;2024-01-25T07:34:28;5.30;99.90
19252;DHT22;9760;50.944;5.304;2024-01-25T07:36:53;5.30;99.90
19252;DHT22;9760;50.944;5.304;2024-01-25T07:39:19;5.40;99.90
19252;DHT22;9760;50.944;5.304;2024-01-25T07:41:45;5.40;99.90
19252;DHT22;9760;50.944;5.304;2024-01-25T07:44:10;5.40;99.90
19252;DHT22;9760;50.944;5.304;2024-01-25T07:46:36;5.40;99.90
19252;DHT22;9760;50.944;5.304;2024-01-25T07:49:02;5.40;99.90
19252;DHT22;9760;50.944;5.304;2024-01-25T07:51:27;5.50;99.90
19252;DHT22;9760;50.944;5.304;2024-01-25T07:53:54;5.40;99.90
19252;DHT22;9760;50.944;5.304;2024-01-25T07:56:20;5.40;99.90
19252;DHT22;9760;50.944;5.304;2024-01-25T07:58:50;5.40;99.90
19252;DHT22;9760;50.944;5.304;2024-01-25T08:01:19;5.50;99.90
19252;DHT22;9760;50.944;5.304;2024-01-25T08:03:46;5.60;99.90
19252;DHT22;9760;50.944;5.304;2024-01-25T08:06:12;5.60;99.90
19252;DHT22;9760;50.944;5.304;2024-01-25T08:08:37;5.60;99.90
19252;DHT22;9760;50.944;5.304;2024-01-25T08:11:03;5.60;99.90
19252;DHT22;9760;50.944;5.304;2024-01-25T08:13:33;5.60;99.90
19252;DHT22;9760;50.944;5.304;2024-01-25T08:15:59;5.70;99.90
19252;DHT22;9760;50.944;5.304;2024-01-25T08:18:25;5.70;99.90
19252;DHT22;9760;50.944;5.304;2024-01-25T08:20:52;5.80;99.90
19252;DHT22;9760;50.944;5.304;2024-01-25T08:23:18;5.90;99.90
19252;DHT22;9760;50.944;5.304;2024-01-25T08:25:44;6.00;99.90
19252;DHT22;9760;50.944;5.304;2024-01-25T08:28:10;6.00;99.90
19252;DHT22;9760;50.944;5.304;2024-01-25T08:30:36;6.20;99.90
19252;DHT22;9760;50.944;5.304;2024-01-25T08:33:02;6.20;99.90
19252;DHT22;9760;50.944;5.304;2024-01-25T08:35:29;6.30;99.90
19252;DHT22;9760;50.944;5.304;2024-01-25T08:37:55;6.40;99.90
19252;DHT22;9760;50.944;5.304;2024-01-25T08:40:21;6.40;99.90
19252;DHT22;9760;50.944;5.304;2024-01-25T08:42:47;6.40;99.90
19252;DHT22;9760;50.944;5.304;2024-01-25T08:45:12;6.50;99.90
19252;DHT22;9760;50.944;5.304;2024-01-25T08:47:39;6.50;99.90
19252;DHT22;9760;50.944;5.304;2024-01-25T08:50:05;6.50;99.90
19252;DHT22;9760;50.944;5.304;2024-01-25T08:52:38;6.50;99.90
19252;DHT22;9760;50.944;5.304;2024-01-25T08:55:04;6.50;99.90
19252;DHT22;9760;50.944;5.304;2024-01-25T08:57:31;6.50;99.90
19252;DHT22;9760;50.944;5.304;2024-01-25T08:59:56;6.40;99.90
19252;DHT22;9760;50.944;5.304;2024-01-25T09:02:24;6.40;99.90
19252;DHT22;9760;50.944;5.304;2024-01-25T09:04:52;6.50;99.90
19252;DHT22;9760;50.944;5.304;2024-01-25T09:07:19;6.50;99.90
19252;DHT22;9760;50.944;5.304;2024-01-25T09:09:45;6.60;99.90
19252;DHT22;9760;50.944;5.304;2024-01-25T09:12:11;6.60;99.90
19252;DHT22;9760;50.944;5.304;2024-01-25T09:14:38;6.50;99.90
19252;DHT22;9760;50.944;5.304;2024-01-25T09:17:04;6.40;99.90
19252;DHT22;9760;50.944;5.304;2024-01-25T09:19:30;6.40;99.90
19252;DHT22;9760;50.944;5.304;2024-01-25T09:21:56;6.40;99.90
19252;DHT22;9760;50.944;5.304;2024-01-25T09:24:25;6.40;99.90
19252;DHT22;9760;50.944;5.304;2024-01-25T09:26:50;6.40;99.90
19252;DHT22;9760;50.944;5.304;2024-01-25T09:29:16;6.30;99.90
19252;DHT22;9760;50.944;5.304;2024-01-25T09:31:42;6.30;99.90
19252;DHT22;9760;50.944;5.304;2024-01-25T09:34:07;6.30;99.90
19252;DHT22;9760;50.944;5.304;2024-01-25T09:36:33;6.20;99.90
19252;DHT22;9760;50.944;5.304;2024-01-25T09:38:59;6.20;99.90
19252;DHT22;9760;50.944;5.304;2024-01-25T09:41:24;6.30;99.90
19252;DHT22;9760;50.944;5.304;2024-01-25T09:43:50;6.40;99.90
19252;DHT22;9760;50.944;5.304;2024-01-25T09:46:16;6.40;99.90
19252;DHT22;9760;50.944;5.304;2024-01-25T09:48:43;6.40;99.90
19252;DHT22;9760;50.944;5.304;2024-01-25T09:51:11;6.50;99.90
19252;DHT22;9760;50.944;5.304;2024-01-25T09:53:39;6.50;99.90
19252;DHT22;9760;50.944;5.304;2024-01-25T09:56:06;6.60;99.90
19252;DHT22;9760;50.944;5.304;2024-01-25T09:58:41;6.70;99.90
19252;DHT22;9760;50.944;5.304;2024-01-25T10:01:09;6.70;99.90
19252;DHT22;9760;50.944;5.304;2024-01-25T10:03:39;6.70;99.90
19252;DHT22;9760;50.944;5.304;2024-01-25T10:06:08;6.70;99.90
19252;DHT22;9760;50.944;5.304;2024-01-25T10:08:34;6.80;99.90
19252;DHT22;9760;50.944;5.304;2024-01-25T10:11:00;6.80;99.90
19252;DHT22;9760;50.944;5.304;2024-01-25T10:13:28;6.90;99.90
19252;DHT22;9760;50.944;5.304;2024-01-25T10:15:54;6.90;99.90
19252;DHT22;9760;50.944;5.304;2024-01-25T10:18:22;6.90;99.90
19252;DHT22;9760;50.944;5.304;2024-01-25T10:20:48;6.90;99.90
19252;DHT22;9760;50.944;5.304;2024-01-25T10:23:14;7.00;99.90
19252;DHT22;9760;50.944;5.304;2024-01-25T10:25:40;7.10;99.90
19252;DHT22;9760;50.944;5.304;2024-01-25T10:28:06;7.10;99.90
19252;DHT22;9760;50.944;5.304;2024-01-25T10:30:33;7.10;99.90
19252;DHT22;9760;50.944;5.304;2024-01-25T10:33:00;7.20;99.90
19252;DHT22;9760;50.944;5.304;2024-01-25T10:35:26;7.20;99.90
19252;DHT22;9760;50.944;5.304;2024-01-25T10:37:52;7.20;99.90
19252;DHT22;9760;50.944;5.304;2024-01-25T10:40:21;7.20;99.90
19252;DHT22;9760;50.944;5.304;2024-01-25T10:42:48;7.20;99.90
19252;DHT22;9760;50.944;5.304;2024-01-25T10:45:14;7.20;99.90
19252;DHT22;9760;50.944;5.304;2024-01-25T10:47:40;7.30;99.90
19252;DHT22;9760;50.944;5.304;2024-01-25T10:50:13;7.30;99.90
19252;DHT22;9760;50.944;5.304;2024-01-25T10:52:42;7.40;99.90
19252;DHT22;9760;50.944;5.304;2024-01-25T10:55:08;7.30;99.90
19252;DHT22;9760;50.944;5.304;2024-01-25T10:57:35;7.30;99.90
19252;DHT22;9760;50.944;5.304;2024-01-25T11:00:06;7.20;99.90
19252;DHT22;9760;50.944;5.304;2024-01-25T11:02:35;7.30;99.90
19252;DHT22;9760;50.944;5.304;2024-01-25T11:05:01;7.40;99.90
19252;DHT22;9760;50.944;5.304;2024-01-25T11:07:28;7.50;99.90
19252;DHT22;9760;50.944;5.304;2024-01-25T11:09:53;7.50;99.90
19252;DHT22;9760;50.944;5.304;2024-01-25T11:12:20;7.50;99.90
19252;DHT22;9760;50.944;5.304;2024-01-25T11:14:53;7.70;99.90
19252;DHT22;9760;50.944;5.304;2024-01-25T11:17:19;7.80;99.90
19252;DHT22;9760;50.944;5.304;2024-01-25T11:19:47;8.10;99.90
19252;DHT22;9760;50.944;5.304;2024-01-25T11:22:13;8.10;99.90
19252;DHT22;9760;50.944;5.304;2024-01-25T11:24:46;8.20;99.90
19252;DHT22;9760;50.944;5.304;2024-01-25T11:27:14;8.30;99.90
19252;DHT22;9760;50.944;5.304;2024-01-25T11:29:41;8.40;99.90
19252;DHT22;9760;50.944;5.304;2024-01-25T11:32:07;8.40;99.90
19252;DHT22;9760;50.944;5.304;2024-01-25T11:34:34;8.50;99.90
19252;DHT22;9760;50.944;5.304;2024-01-25T11:37:00;8.60;99.90
19252;DHT22;9760;50.944;5.304;2024-01-25T11:39:27;8.60;99.90
19252;DHT22;9760;50.944;5.304;2024-01-25T11:41:54;8.70;99.90
19252;DHT22;9760;50.944;5.304;2024-01-25T11:44:19;8.80;99.90
19252;DHT22;9760;50.944;5.304;2024-01-25T11:46:48;8.80;99.90
19252;DHT22;9760;50.944;5.304;2024-01-25T11:49:14;8.90;99.90
19252;DHT22;9760;50.944;5.304;2024-01-25T11:51:39;8.90;99.90
19252;DHT22;9760;50.944;5.304;2024-01-25T11:54:05;8.90;99.90
19252;DHT22;9760;50.944;5.304;2024-01-25T11:56:35;9.00;99.90
19252;DHT22;9760;50.944;5.304;2024-01-25T11:59:02;9.10;99.90
19252;DHT22;9760;50.944;5.304;2024-01-25T12:01:28;9.10;99.90
19252;DHT22;9760;50.944;5.304;2024-01-25T12:03:54;9.20;99.90
19252;DHT22;9760;50.944;5.304;2024-01-25T12:06:20;9.20;99.90
19252;DHT22;9760;50.944;5.304;2024-01-25T12:08:46;9.30;99.90
19252;DHT22;9760;50.944;5.304;2024-01-25T12:11:14;9.30;99.90
19252;DHT22;9760;50.944;5.304;2024-01-25T12:13:41;9.30;99.90
19252;DHT22;9760;50.944;5.304;2024-01-25T12:16:09;9.40;99.90
19252;DHT22;9760;50.944;5.304;2024-01-25T12:18:35;9.40;99.90
19252;DHT22;9760;50.944;5.304;2024-01-25T12:21:02;9.50;99.90
19252;DHT22;9760;50.944;5.304;2024-01-25T12:23:39;9.50;99.90
19252;DHT22;9760;50.944;5.304;2024-01-25T12:26:07;9.60;99.90
19252;DHT22;9760;50.944;5.304;2024-01-25T12:28:33;9.70;99.90
19252;DHT22;9760;50.944;5.304;2024-01-25T12:31:00;9.70;99.90
19252;DHT22;9760;50.944;5.304;2024-01-25T12:33:26;9.70;99.90
19252;DHT22;9760;50.944;5.304;2024-01-25T12:35:52;9.70;99.90
19252;DHT22;9760;50.944;5.304;2024-01-25T12:38:21;9.70;99.90
19252;DHT22;9760;50.944;5.304;2024-01-25T12:40:48;9.80;99.90
19252;DHT22;9760;50.944;5.304;2024-01-25T12:43:17;9.80;99.90
19252;DHT22;9760;50.944;5.304;2024-01-25T12:45:43;9.90;99.90
19252;DHT22;9760;50.944;5.304;2024-01-25T12:48:09;9.90;99.90
19252;DHT22;9760;50.944;5.304;2024-01-25T12:50:36;9.90;99.90
19252;DHT22;9760;50.944;5.304;2024-01-25T12:53:02;9.90;99.90
19252;DHT22;9760;50.944;5.304;2024-01-25T12:55:31;9.90;99.90
19252;DHT22;9760;50.944;5.304;2024-01-25T12:57:57;9.80;99.90
19252;DHT22;9760;50.944;5.304;2024-01-25T13:00:23;9.80;99.90
19252;DHT22;9760;50.944;5.304;2024-01-25T13:02:50;9.80;99.90
19252;DHT22;9760;50.944;5.304;2024-01-25T13:05:16;9.70;99.90
19252;DHT22;9760;50.944;5.304;2024-01-25T13:07:42;9.70;99.90
19252;DHT22;9760;50.944;5.304;2024-01-25T13:10:11;9.60;99.90
19252;DHT22;9760;50.944;5.304;2024-01-25T13:12:40;9.50;99.90
19252;DHT22;9760;50.944;5.304;2024-01-25T13:15:07;9.40;99.90
19252;DHT22;9760;50.944;5.304;2024-01-25T13:17:36;9.30;99.90
19252;DHT22;9760;50.944;5.304;2024-01-25T13:20:02;9.30;99.90
19252;DHT22;9760;50.944;5.304;2024-01-25T13:22:28;9.30;99.90
19252;DHT22;9760;50.944;5.304;2024-01-25T13:24:55;9.20;99.90
19252;DHT22;9760;50.944;5.304;2024-01-25T13:27:21;9.10;99.90
19252;DHT22;9760;50.944;5.304;2024-01-25T13:29:46;9.10;99.90
19252;DHT22;9760;50.944;5.304;2024-01-25T13:32:12;9.10;99.90
19252;DHT22;9760;50.944;5.304;2024-01-25T13:34:38;9.00;99.90
19252;DHT22;9760;50.944;5.304;2024-01-25T13:37:03;9.00;99.90
19252;DHT22;9760;50.944;5.304;2024-01-25T13:39:29;9.10;99.90
19252;DHT22;9760;50.944;5.304;2024-01-25T13:41:55;9.10;99.90
19252;DHT22;9760;50.944;5.304;2024-01-25T13:44:22;9.20;99.90
19252;DHT22;9760;50.944;5.304;2024-01-25T13:46:47;9.20;99.90
19252;DHT22;9760;50.944;5.304;2024-01-25T13:49:13;9.20;99.90
19252;DHT22;9760;50.944;5.304;2024-01-25T13:51:39;9.20;99.90
19252;DHT22;9760;50.944;5.304;2024-01-25T13:54:05;9.30;99.90
19252;DHT22;9760;50.944;5.304;2024-01-25T13:56:30;9.30;99.90
19252;DHT22;9760;50.944;5.304;2024-01-25T13:58:56;9.30;99.90
19252;DHT22;9760;50.944;5.304;2024-01-25T14:01:22;9.30;99.90
19252;DHT22;9760;50.944;5.304;2024-01-25T14:03:48;9.30;99.90
19252;DHT22;9760;50.944;5.304;2024-01-25T14:06:13;9.20;99.90
19252;DHT22;9760;50.944;5.304;2024-01-25T14:08:39;9.30;99.90
19252;DHT22;9760;50.944;5.304;2024-01-25T14:11:05;9.30;99.90
19252;DHT22;9760;50.944;5.304;2024-01-25T14:13:33;9.30;99.90
19252;DHT22;9760;50.944;5.304;2024-01-25T14:15:59;9.30;99.90
19252;DHT22;9760;50.944;5.304;2024-01-25T14:18:27;9.30;99.90
19252;DHT22;9760;50.944;5.304;2024-01-25T14:20:53;9.30;99.90
19252;DHT22;9760;50.944;5.304;2024-01-25T14:23:19;9.30;99.90
19252;DHT22;9760;50.944;5.304;2024-01-25T14:25:44;9.30;99.90
19252;DHT22;9760;50.944;5.304;2024-01-25T14:28:11;9.30;99.90
19252;DHT22;9760;50.944;5.304;2024-01-25T14:30:36;9.30;99.90
19252;DHT22;9760;50.944;5.304;2024-01-25T14:33:02;9.30;99.90
19252;DHT22;9760;50.944;5.304;2024-01-25T14:35:29;9.30;99.90
19252;DHT22;9760;50.944;5.304;2024-01-25T14:37:55;9.30;99.90
19252;DHT22;9760;50.944;5.304;2024-01-25T14:40:21;9.30;99.90
19252;DHT22;9760;50.944;5.304;2024-01-25T14:42:47;9.40;99.90
19252;DHT22;9760;50.944;5.304;2024-01-25T14:45:13;9.40;99.90
19252;DHT22;9760;50.944;5.304;2024-01-25T14:47:38;9.40;99.90
19252;DHT22;9760;50.944;5.304;2024-01-25T14:50:05;9.40;99.90
19252;DHT22;9760;50.944;5.304;2024-01-25T14:52:31;9.40;99.90
19252;DHT22;9760;50.944;5.304;2024-01-25T14:55:00;9.40;99.90
19252;DHT22;9760;50.944;5.304;2024-01-25T14:57:26;9.40;99.90
19252;DHT22;9760;50.944;5.304;2024-01-25T14:59:52;9.40;99.90
19252;DHT22;9760;50.944;5.304;2024-01-25T15:02:18;9.40;99.90
19252;DHT22;9760;50.944;5.304;2024-01-25T15:04:44;9.40;99.90
19252;DHT22;9760;50.944;5.304;2024-01-25T15:07:09;9.40;99.90
19252;DHT22;9760;50.944;5.304;2024-01-25T15:09:35;9.40;99.90
19252;DHT22;9760;50.944;5.304;2024-01-25T15:12:01;9.40;99.90
19252;DHT22;9760;50.944;5.304;2024-01-25T15:14:27;9.40;99.90
19252;DHT22;9760;50.944;5.304;2024-01-25T15:16:52;9.50;99.90
19252;DHT22;9760;50.944;5.304;2024-01-25T15:19:18;9.40;99.90
19252;DHT22;9760;50.944;5.304;2024-01-25T15:21:44;9.40;99.90
19252;DHT22;9760;50.944;5.304;2024-01-25T15:24:09;9.40;99.90
19252;DHT22;9760;50.944;5.304;2024-01-25T15:26:39;9.40;99.90
19252;DHT22;9760;50.944;5.304;2024-01-25T15:29:05;9.40;99.90
19252;DHT22;9760;50.944;5.304;2024-01-25T15:31:31;9.40;99.90
19252;DHT22;9760;50.944;5.304;2024-01-25T15:33:56;9.40;99.90
19252;DHT22;9760;50.944;5.304;2024-01-25T15:36:22;9.40;99.90
19252;DHT22;9760;50.944;5.304;2024-01-25T15:38:48;9.40;99.90
19252;DHT22;9760;50.944;5.304;2024-01-25T15:41:15;9.40;99.90
19252;DHT22;9760;50.944;5.304;2024-01-25T15:43:42;9.40;99.90
19252;DHT22;9760;50.944;5.304;2024-01-25T15:46:07;9.40;99.90
19252;DHT22;9760;50.944;5.304;2024-01-25T15:48:33;9.40;99.90
19252;DHT22;9760;50.944;5.304;2024-01-25T15:50:59;9.40;99.90
19252;DHT22;9760;50.944;5.304;2024-01-25T15:53:25;9.40;99.90
19252;DHT22;9760;50.944;5.304;2024-01-25T15:55:50;9.40;99.90